createdAt,value
2023-03-29T00:00:23.743Z,1016.94
2023-03-29T00:01:47.730Z,1016.95
2023-03-29T00:02:51.160Z,1016.93
2023-03-29T00:04:27.208Z,1016.91
2023-03-29T00:05:30.300Z,1016.87
2023-03-29T00:06:33.441Z,1016.87
2023-03-29T00:08:08.172Z,1016.77
2023-03-29T00:09:11.121Z,1016.79
2023-03-29T00:10:13.942Z,1016.73
2023-03-29T00:11:48.412Z,1016.68
2023-03-29T00:12:51.199Z,1016.73
2023-03-29T00:13:54.157Z,1016.68
2023-03-29T00:15:29.119Z,1016.63
2023-03-29T00:16:32.275Z,1016.59
2023-03-29T00:17:35.503Z,1016.58
2023-03-29T00:19:10.469Z,1016.56
2023-03-29T00:20:13.650Z,1016.59
2023-03-29T00:21:16.474Z,1016.57
2023-03-29T00:22:51.279Z,1016.59
2023-03-29T00:23:54.124Z,1016.57
2023-03-29T00:24:57.169Z,1016.57
2023-03-29T00:26:31.730Z,1016.55
2023-03-29T00:27:34.748Z,1016.56
2023-03-29T00:28:37.540Z,1016.58
2023-03-29T00:30:12.208Z,1016.57
2023-03-29T00:31:15.828Z,1016.54
2023-03-29T00:32:18.783Z,1016.55
2023-03-29T00:33:53.973Z,1016.56
2023-03-29T00:34:56.894Z,1016.53
2023-03-29T00:35:59.970Z,1016.55
2023-03-29T00:37:35.089Z,1016.52
2023-03-29T00:38:37.987Z,1016.48
2023-03-29T00:39:41.079Z,1016.50
2023-03-29T00:41:16.247Z,1016.42
2023-03-29T00:42:18.987Z,1016.40
2023-03-29T00:43:21.795Z,1016.38
2023-03-29T00:44:56.415Z,1016.35
2023-03-29T00:45:59.480Z,1016.34
2023-03-29T00:47:02.904Z,1016.30
2023-03-29T00:48:37.570Z,1016.34
2023-03-29T00:49:40.585Z,1016.29
2023-03-29T00:50:43.554Z,1016.31
2023-03-29T00:52:18.777Z,1016.28
2023-03-29T00:53:21.812Z,1016.28
2023-03-29T00:54:24.628Z,1016.26
2023-03-29T00:55:59.267Z,1016.28
2023-03-29T00:57:02.363Z,1016.24
2023-03-29T00:58:05.349Z,1016.23
2023-03-29T00:59:39.884Z,1016.13
2023-03-29T01:01:25.354Z,1016.01
2023-03-29T01:02:28.744Z,1016.01
2023-03-29T01:04:04.434Z,1015.98
2023-03-29T01:05:07.234Z,1015.97
2023-03-29T01:06:10.178Z,1016.00
2023-03-29T01:07:44.856Z,1015.96
2023-03-29T01:08:47.938Z,1015.94
2023-03-29T01:09:50.790Z,1015.91
2023-03-29T01:11:25.564Z,1015.98
2023-03-29T01:12:28.639Z,1015.94
2023-03-29T01:13:31.548Z,1015.96
2023-03-29T01:15:06.105Z,1015.97
2023-03-29T01:16:09.074Z,1015.98
2023-03-29T01:17:12.206Z,1016.01
2023-03-29T01:18:47.108Z,1015.99
2023-03-29T01:19:49.990Z,1015.92
2023-03-29T01:20:52.764Z,1015.88
2023-03-29T01:22:27.502Z,1015.85
2023-03-29T01:23:30.336Z,1015.80
2023-03-29T01:24:33.256Z,1015.83
2023-03-29T01:26:07.960Z,1015.81
2023-03-29T01:27:10.805Z,1015.75
2023-03-29T01:28:13.905Z,1015.76
2023-03-29T01:29:48.635Z,1015.77
2023-03-29T01:30:51.541Z,1015.74
2023-03-29T01:31:55.018Z,1015.68
2023-03-29T01:33:30.097Z,1015.67
2023-03-29T01:34:33.212Z,1015.61
2023-03-29T01:35:36.086Z,1015.56
2023-03-29T01:37:10.724Z,1015.56
2023-03-29T01:38:13.655Z,1015.54
2023-03-29T01:39:16.438Z,1015.55
2023-03-29T01:40:51.239Z,1015.57
2023-03-29T01:41:54.594Z,1015.57
2023-03-29T01:42:57.532Z,1015.60
2023-03-29T01:44:32.191Z,1015.58
2023-03-29T01:45:35.270Z,1015.63
2023-03-29T01:46:38.480Z,1015.63
2023-03-29T01:48:13.592Z,1015.56
2023-03-29T01:49:16.329Z,1015.56
2023-03-29T01:50:19.061Z,1015.51
2023-03-29T01:51:53.854Z,1015.50
2023-03-29T01:52:56.583Z,1015.55
2023-03-29T01:53:59.536Z,1015.52
2023-03-29T01:55:34.235Z,1015.51
2023-03-29T01:56:37.118Z,1015.60
2023-03-29T01:57:40.423Z,1015.60
2023-03-29T01:59:15.116Z,1015.59
2023-03-29T02:00:23.886Z,1015.55
2023-03-29T02:01:27.413Z,1015.49
2023-03-29T02:02:31.184Z,1015.53
2023-03-29T02:04:06.367Z,1015.52
2023-03-29T02:05:09.194Z,1015.47
2023-03-29T02:06:11.960Z,1015.47
2023-03-29T02:07:46.627Z,1015.44
2023-03-29T02:08:49.546Z,1015.40
2023-03-29T02:09:52.468Z,1015.37
2023-03-29T02:11:27.067Z,1015.33
2023-03-29T02:12:29.791Z,1015.31
2023-03-29T02:13:32.654Z,1015.33
2023-03-29T02:15:07.262Z,1015.25
2023-03-29T02:16:10.454Z,1015.26
2023-03-29T02:17:13.545Z,1015.25
2023-03-29T02:18:48.546Z,1015.25
2023-03-29T02:19:51.349Z,1015.32
2023-03-29T02:20:54.329Z,1015.29
2023-03-29T02:22:29.495Z,1015.31
2023-03-29T02:23:32.522Z,1015.23
2023-03-29T02:24:35.387Z,1015.26
2023-03-29T02:26:09.884Z,1015.27
2023-03-29T02:27:12.641Z,1015.27
2023-03-29T02:28:15.413Z,1015.23
2023-03-29T02:29:49.899Z,1015.23
2023-03-29T02:30:52.993Z,1015.20
2023-03-29T02:31:56.868Z,1015.21
2023-03-29T02:33:31.504Z,1015.19
2023-03-29T02:34:34.553Z,1015.19
2023-03-29T02:35:37.620Z,1015.16
2023-03-29T02:37:12.664Z,1015.12
2023-03-29T02:38:15.594Z,1015.14
2023-03-29T02:39:18.562Z,1015.14
2023-03-29T02:40:53.420Z,1015.08
2023-03-29T02:41:56.556Z,1015.08
2023-03-29T02:42:59.366Z,1015.08
2023-03-29T02:44:33.949Z,1015.10
2023-03-29T02:45:36.744Z,1015.07
2023-03-29T02:46:39.796Z,1015.06
2023-03-29T02:48:14.992Z,1015.06
2023-03-29T02:49:17.804Z,1015.08
2023-03-29T02:50:20.837Z,1015.05
2023-03-29T02:51:55.463Z,1015.06
2023-03-29T02:52:58.453Z,1014.97
2023-03-29T02:54:01.343Z,1014.95
2023-03-29T02:55:35.996Z,1014.95
2023-03-29T02:56:38.989Z,1014.97
2023-03-29T02:57:42.167Z,1014.95
2023-03-29T02:59:16.807Z,1014.92
2023-03-29T03:00:23.478Z,1014.90
2023-03-29T03:01:26.892Z,1014.90
2023-03-29T03:02:29.969Z,1014.87
2023-03-29T03:04:05.245Z,1014.88
2023-03-29T03:05:08.405Z,1014.89
2023-03-29T03:06:11.391Z,1014.88
2023-03-29T03:07:46.229Z,1014.88
2023-03-29T03:08:49.109Z,1014.85
2023-03-29T03:09:51.994Z,1014.84
2023-03-29T03:11:26.677Z,1014.79
2023-03-29T03:12:29.524Z,1014.83
2023-03-29T03:13:32.326Z,1014.84
2023-03-29T03:15:06.962Z,1014.83
2023-03-29T03:16:10.114Z,1014.81
2023-03-29T03:17:16.157Z,1014.84
2023-03-29T03:18:51.123Z,1014.83
2023-03-29T03:19:53.969Z,1014.75
2023-03-29T03:20:56.782Z,1014.79
2023-03-29T03:22:31.760Z,1014.71
2023-03-29T03:23:34.682Z,1014.75
2023-03-29T03:24:37.539Z,1014.72
2023-03-29T03:26:12.277Z,1014.68
2023-03-29T03:27:15.098Z,1014.67
2023-03-29T03:28:18.147Z,1014.60
2023-03-29T03:29:52.980Z,1014.56
2023-03-29T03:30:55.943Z,1014.58
2023-03-29T03:32:00.063Z,1014.53
2023-03-29T03:33:34.940Z,1014.51
2023-03-29T03:34:37.770Z,1014.50
2023-03-29T03:35:40.801Z,1014.51
2023-03-29T03:37:15.704Z,1014.54
2023-03-29T03:38:18.565Z,1014.52
2023-03-29T03:39:21.267Z,1014.55
2023-03-29T03:40:55.996Z,1014.51
2023-03-29T03:41:59.588Z,1014.53
2023-03-29T03:43:05.872Z,1014.47
2023-03-29T03:44:40.934Z,1014.49
2023-03-29T03:45:44.033Z,1014.50
2023-03-29T03:46:47.315Z,1014.48
2023-03-29T03:48:22.001Z,1014.49
2023-03-29T03:49:24.907Z,1014.44
2023-03-29T03:50:27.744Z,1014.44
2023-03-29T03:52:03.996Z,1014.46
2023-03-29T03:53:06.908Z,1014.44
2023-03-29T03:54:09.664Z,1014.47
2023-03-29T03:55:44.230Z,1014.42
2023-03-29T03:56:47.120Z,1014.45
2023-03-29T03:57:50.249Z,1014.43
2023-03-29T03:59:25.013Z,1014.43
2023-03-29T04:00:22.962Z,1014.41
2023-03-29T04:01:25.878Z,1014.38
2023-03-29T04:02:29.242Z,1014.39
2023-03-29T04:04:05.088Z,1014.36
2023-03-29T04:05:51.546Z,1014.36
2023-03-29T04:06:55.349Z,1014.29
2023-03-29T04:07:58.156Z,1014.28
2023-03-29T04:09:33.320Z,1014.30
2023-03-29T04:10:36.487Z,1014.27
2023-03-29T04:11:39.790Z,1014.27
2023-03-29T04:13:14.881Z,1014.30
2023-03-29T04:14:18.136Z,1014.30
2023-03-29T04:15:21.110Z,1014.28
2023-03-29T04:16:56.525Z,1014.29
2023-03-29T04:18:00.298Z,1014.27
2023-03-29T04:19:04.115Z,1014.27
2023-03-29T04:20:39.300Z,1014.26
2023-03-29T04:21:42.358Z,1014.26
2023-03-29T04:22:45.633Z,1014.25
2023-03-29T04:24:20.607Z,1014.29
2023-03-29T04:25:23.949Z,1014.32
2023-03-29T04:26:26.957Z,1014.36
2023-03-29T04:28:01.904Z,1014.36
2023-03-29T04:29:04.850Z,1014.38
2023-03-29T04:30:08.074Z,1014.41
2023-03-29T04:31:43.064Z,1014.38
2023-03-29T04:32:46.906Z,1014.36
2023-03-29T04:33:50.534Z,1014.35
2023-03-29T04:35:29.103Z,1014.33
2023-03-29T04:36:32.775Z,1014.32
2023-03-29T04:37:35.999Z,1014.30
2023-03-29T04:39:10.976Z,1014.30
2023-03-29T04:40:13.727Z,1014.30
2023-03-29T04:41:16.983Z,1014.27
2023-03-29T04:42:51.915Z,1014.20
2023-03-29T04:43:55.054Z,1014.22
2023-03-29T04:44:58.274Z,1014.23
2023-03-29T04:46:33.560Z,1014.21
2023-03-29T04:47:37.384Z,1014.29
2023-03-29T04:48:40.670Z,1014.28
2023-03-29T04:50:16.018Z,1014.28
2023-03-29T04:51:19.413Z,1014.29
2023-03-29T04:52:23.937Z,1014.25
2023-03-29T04:53:59.351Z,1014.28
2023-03-29T04:55:02.286Z,1014.35
2023-03-29T04:56:05.608Z,1014.33
2023-03-29T04:57:40.840Z,1014.30
2023-03-29T04:58:44.368Z,1014.33
2023-03-29T04:59:47.344Z,1014.31
2023-03-29T05:01:26.299Z,1014.28
2023-03-29T05:02:29.750Z,1014.31
2023-03-29T05:04:05.187Z,1014.22
2023-03-29T05:05:10.417Z,1014.18
2023-03-29T05:06:13.509Z,1014.17
2023-03-29T05:07:48.509Z,1014.08
2023-03-29T05:08:51.827Z,1014.08
2023-03-29T05:09:54.947Z,1014.09
2023-03-29T05:11:30.276Z,1014.09
2023-03-29T05:12:33.545Z,1014.04
2023-03-29T05:13:36.658Z,1014.06
2023-03-29T05:15:12.035Z,1014.08
2023-03-29T05:16:15.390Z,1014.10
2023-03-29T05:17:18.847Z,1014.08
2023-03-29T05:18:54.109Z,1014.05
2023-03-29T05:19:57.272Z,1014.08
2023-03-29T05:21:00.614Z,1014.07
2023-03-29T05:22:35.960Z,1014.06
2023-03-29T05:23:39.167Z,1014.00
2023-03-29T05:24:42.295Z,1014.04
2023-03-29T05:26:17.618Z,1014.08
2023-03-29T05:27:20.725Z,1014.10
2023-03-29T05:28:23.568Z,1014.11
2023-03-29T05:29:58.485Z,1014.06
2023-03-29T05:31:02.087Z,1013.99
2023-03-29T05:32:09.060Z,1014.03
2023-03-29T05:33:44.746Z,1014.10
2023-03-29T05:34:47.776Z,1014.10
2023-03-29T05:35:50.901Z,1014.14
2023-03-29T05:37:26.438Z,1014.08
2023-03-29T05:38:29.416Z,1014.10
2023-03-29T05:39:32.530Z,1014.11
2023-03-29T05:41:08.001Z,1014.15
2023-03-29T05:42:11.427Z,1014.18
2023-03-29T05:43:14.637Z,1014.23
2023-03-29T05:44:49.503Z,1014.19
2023-03-29T05:45:52.862Z,1014.18
2023-03-29T05:46:56.227Z,1014.15
2023-03-29T05:48:31.312Z,1014.11
2023-03-29T05:49:34.471Z,1014.12
2023-03-29T05:50:37.470Z,1014.17
2023-03-29T05:52:15.712Z,1014.13
2023-03-29T05:53:18.748Z,1014.09
2023-03-29T05:54:21.846Z,1014.07
2023-03-29T05:55:57.417Z,1014.09
2023-03-29T05:57:00.740Z,1014.16
2023-03-29T05:58:04.008Z,1014.16
2023-03-29T05:59:38.714Z,1014.20
2023-03-29T06:01:26.772Z,1014.22
2023-03-29T06:02:29.806Z,1014.10
2023-03-29T06:04:08.440Z,1014.07
2023-03-29T06:05:12.292Z,1014.03
2023-03-29T06:06:15.426Z,1014.03
2023-03-29T06:07:50.160Z,1014.07
2023-03-29T06:08:53.406Z,1014.06
2023-03-29T06:09:56.637Z,1014.06
2023-03-29T06:11:31.654Z,1014.08
2023-03-29T06:12:34.600Z,1014.07
2023-03-29T06:13:37.555Z,1014.06
2023-03-29T06:15:12.443Z,1014.05
2023-03-29T06:16:15.275Z,1014.04
2023-03-29T06:17:18.815Z,1014.04
2023-03-29T06:18:53.890Z,1014.04
2023-03-29T06:19:56.711Z,1014.02
2023-03-29T06:20:59.708Z,1014.04
2023-03-29T06:22:35.030Z,1014.00
2023-03-29T06:23:38.281Z,1014.02
2023-03-29T06:24:41.985Z,1014.03
2023-03-29T06:26:16.991Z,1014.03
2023-03-29T06:27:19.953Z,1014.06
2023-03-29T06:28:23.018Z,1014.07
2023-03-29T06:29:57.773Z,1014.04
2023-03-29T06:31:01.439Z,1014.03
2023-03-29T06:32:05.324Z,1014.01
2023-03-29T06:33:39.997Z,1014.03
2023-03-29T06:34:44.295Z,1014.01
2023-03-29T06:35:47.603Z,1014.08
2023-03-29T06:37:22.782Z,1014.06
2023-03-29T06:38:25.916Z,1014.08
2023-03-29T06:39:28.932Z,1014.06
2023-03-29T06:41:04.158Z,1014.06
2023-03-29T06:42:22.625Z,1014.07
2023-03-29T06:43:25.972Z,1014.03
2023-03-29T06:45:00.773Z,1014.12
2023-03-29T06:46:03.922Z,1014.09
2023-03-29T06:47:07.186Z,1014.12
2023-03-29T06:48:42.388Z,1014.04
2023-03-29T06:49:45.314Z,1014.08
2023-03-29T06:50:48.363Z,1014.13
2023-03-29T06:52:23.183Z,1014.10
2023-03-29T06:53:26.215Z,1014.11
2023-03-29T06:54:29.314Z,1014.11
2023-03-29T06:56:04.189Z,1014.09
2023-03-29T06:57:07.748Z,1014.13
2023-03-29T06:58:14.022Z,1014.16
2023-03-29T06:59:48.975Z,1014.17
2023-03-29T07:01:26.704Z,1014.17
2023-03-29T07:02:30.075Z,1014.22
2023-03-29T07:04:05.329Z,1014.26
2023-03-29T07:05:08.772Z,1014.22
2023-03-29T07:06:11.923Z,1014.23
2023-03-29T07:07:46.600Z,1014.19
2023-03-29T07:08:49.542Z,1014.22
2023-03-29T07:09:52.667Z,1014.20
2023-03-29T07:11:27.515Z,1014.19
2023-03-29T07:12:30.955Z,1014.21
2023-03-29T07:13:34.112Z,1014.20
2023-03-29T07:15:09.223Z,1014.23
2023-03-29T07:16:12.703Z,1014.26
2023-03-29T07:17:16.211Z,1014.27
2023-03-29T07:18:51.538Z,1014.28
2023-03-29T07:19:54.935Z,1014.31
2023-03-29T07:20:57.886Z,1014.31
2023-03-29T07:22:32.866Z,1014.26
2023-03-29T07:23:35.650Z,1014.27
2023-03-29T07:24:38.673Z,1014.23
2023-03-29T07:26:13.324Z,1014.31
2023-03-29T07:27:46.965Z,1014.36
2023-03-29T07:28:49.928Z,1014.35
2023-03-29T07:30:24.859Z,1014.31
2023-03-29T07:31:30.048Z,1014.30
2023-03-29T07:32:33.355Z,1014.31
2023-03-29T07:34:09.469Z,1014.29
2023-03-29T07:35:12.547Z,1014.30
2023-03-29T07:36:15.908Z,1014.32
2023-03-29T07:37:50.657Z,1014.30
2023-03-29T07:38:56.386Z,1014.31
2023-03-29T07:39:59.686Z,1014.32
2023-03-29T07:41:34.481Z,1014.32
2023-03-29T07:42:37.472Z,1014.32
2023-03-29T07:43:40.686Z,1014.33
2023-03-29T07:45:16.063Z,1014.27
2023-03-29T07:46:26.230Z,1014.31
2023-03-29T07:47:29.412Z,1014.24
2023-03-29T07:49:04.699Z,1014.23
2023-03-29T07:50:08.437Z,1014.21
2023-03-29T07:51:12.137Z,1014.21
2023-03-29T07:52:47.470Z,1014.23
2023-03-29T07:53:50.386Z,1014.32
2023-03-29T07:54:53.177Z,1014.30
2023-03-29T07:56:28.031Z,1014.33
2023-03-29T07:57:31.609Z,1014.27
2023-03-29T07:58:34.500Z,1014.28
2023-03-29T08:00:23.323Z,1014.26
2023-03-29T08:01:31.045Z,1014.28
2023-03-29T08:02:34.426Z,1014.32
2023-03-29T08:04:10.589Z,1014.34
2023-03-29T08:05:17.551Z,1014.31
2023-03-29T08:06:38.420Z,1014.29
2023-03-29T08:08:13.435Z,1014.27
2023-03-29T08:09:16.418Z,1014.30
2023-03-29T08:10:19.418Z,1014.30
2023-03-29T08:11:54.171Z,1014.32
2023-03-29T08:12:57.328Z,1014.26
2023-03-29T08:14:00.428Z,1014.22
2023-03-29T08:15:35.392Z,1014.20
2023-03-29T08:16:38.478Z,1014.21
2023-03-29T08:17:41.950Z,1014.27
2023-03-29T08:19:20.976Z,1014.27
2023-03-29T08:20:24.064Z,1014.26
2023-03-29T08:21:27.102Z,1014.30
2023-03-29T08:23:02.064Z,1014.31
2023-03-29T08:24:05.026Z,1014.32
2023-03-29T08:25:10.441Z,1014.32
2023-03-29T08:26:45.599Z,1014.29
2023-03-29T08:27:48.540Z,1014.29
2023-03-29T08:28:51.689Z,1014.31
2023-03-29T08:30:27.151Z,1014.31
2023-03-29T08:31:30.496Z,1014.27
2023-03-29T08:32:33.940Z,1014.27
2023-03-29T08:34:13.536Z,1014.30
2023-03-29T08:35:16.588Z,1014.35
2023-03-29T08:36:19.874Z,1014.35
2023-03-29T08:37:54.992Z,1014.31
2023-03-29T08:38:57.938Z,1014.29
2023-03-29T08:40:02.955Z,1014.27
2023-03-29T08:41:38.119Z,1014.17
2023-03-29T08:42:41.244Z,1014.15
2023-03-29T08:43:44.291Z,1014.20
2023-03-29T08:45:18.990Z,1014.17
2023-03-29T08:46:22.041Z,1014.14
2023-03-29T08:47:32.762Z,1014.14
2023-03-29T08:49:07.531Z,1014.16
2023-03-29T08:50:10.529Z,1014.13
2023-03-29T08:51:16.049Z,1014.14
2023-03-29T08:52:50.824Z,1014.09
2023-03-29T08:53:53.869Z,1014.07
2023-03-29T08:54:56.819Z,1014.17
2023-03-29T08:56:34.077Z,1014.15
2023-03-29T08:57:37.607Z,1014.11
2023-03-29T08:58:40.758Z,1014.06
2023-03-29T09:00:23.854Z,1014.05
2023-03-29T09:01:27.008Z,1014.08
2023-03-29T09:02:32.430Z,1014.02
2023-03-29T09:04:08.059Z,1014.02
2023-03-29T09:05:11.197Z,1014.00
2023-03-29T09:06:14.404Z,1013.93
2023-03-29T09:07:49.029Z,1013.98
2023-03-29T09:08:52.232Z,1013.97
2023-03-29T09:09:55.422Z,1013.96
2023-03-29T09:11:30.688Z,1013.99
2023-03-29T09:12:35.833Z,1013.99
2023-03-29T09:13:40.114Z,1014.06
2023-03-29T09:15:15.046Z,1014.08
2023-03-29T09:16:18.376Z,1014.12
2023-03-29T09:17:21.438Z,1014.10
2023-03-29T09:18:56.176Z,1014.12
2023-03-29T09:19:59.243Z,1014.14
2023-03-29T09:21:02.290Z,1014.15
2023-03-29T09:22:37.410Z,1014.14
2023-03-29T09:23:40.391Z,1014.20
2023-03-29T09:24:44.405Z,1014.19
2023-03-29T09:26:19.235Z,1014.20
2023-03-29T09:27:22.173Z,1014.18
2023-03-29T09:28:25.281Z,1014.19
2023-03-29T09:30:00.275Z,1014.14
2023-03-29T09:31:03.693Z,1014.16
2023-03-29T09:32:07.579Z,1014.13
2023-03-29T09:33:42.611Z,1014.14
2023-03-29T09:34:45.799Z,1014.11
2023-03-29T09:35:48.843Z,1014.13
2023-03-29T09:37:23.778Z,1014.13
2023-03-29T09:38:26.690Z,1014.14
2023-03-29T09:39:29.745Z,1014.13
2023-03-29T09:41:05.062Z,1014.07
2023-03-29T09:42:08.494Z,1014.12
2023-03-29T09:43:11.399Z,1014.10
2023-03-29T09:44:46.507Z,1014.10
2023-03-29T09:45:49.755Z,1014.06
2023-03-29T09:46:53.136Z,1014.07
2023-03-29T09:48:27.956Z,1014.03
2023-03-29T09:49:31.131Z,1014.02
2023-03-29T09:50:43.021Z,1014.00
2023-03-29T09:52:18.216Z,1014.03
2023-03-29T09:53:21.203Z,1014.02
2023-03-29T09:54:24.112Z,1014.01
2023-03-29T09:56:01.543Z,1014.01
2023-03-29T09:57:04.631Z,1013.99
2023-03-29T09:58:08.077Z,1014.01
2023-03-29T09:59:42.974Z,1014.01
2023-03-29T10:01:26.681Z,1013.99
2023-03-29T10:02:30.163Z,1013.99
2023-03-29T10:04:05.881Z,1013.95
2023-03-29T10:05:09.294Z,1013.99
2023-03-29T10:06:12.475Z,1013.90
2023-03-29T10:07:47.352Z,1013.93
2023-03-29T10:08:50.385Z,1013.88
2023-03-29T10:09:53.470Z,1013.86
2023-03-29T10:11:28.068Z,1013.85
2023-03-29T10:12:31.086Z,1013.85
2023-03-29T10:13:33.971Z,1013.85
2023-03-29T10:15:13.876Z,1013.87
2023-03-29T10:16:27.854Z,1013.81
2023-03-29T10:17:31.421Z,1013.84
2023-03-29T10:19:06.697Z,1013.86
2023-03-29T10:20:12.074Z,1013.85
2023-03-29T10:21:15.614Z,1013.81
2023-03-29T10:22:50.605Z,1013.82
2023-03-29T10:23:53.688Z,1013.78
2023-03-29T10:24:56.794Z,1013.78
2023-03-29T10:26:31.746Z,1013.79
2023-03-29T10:27:34.600Z,1013.80
2023-03-29T10:28:37.857Z,1013.79
2023-03-29T10:30:12.886Z,1013.78
2023-03-29T10:31:17.845Z,1013.74
2023-03-29T10:32:21.224Z,1013.75
2023-03-29T10:33:56.407Z,1013.81
2023-03-29T10:34:59.692Z,1013.82
2023-03-29T10:36:03.073Z,1013.79
2023-03-29T10:37:38.295Z,1013.81
2023-03-29T10:38:41.258Z,1013.81
2023-03-29T10:39:44.315Z,1013.80
2023-03-29T10:41:19.345Z,1013.74
2023-03-29T10:42:22.477Z,1013.76
2023-03-29T10:43:25.362Z,1013.69
2023-03-29T10:45:00.489Z,1013.69
2023-03-29T10:46:03.795Z,1013.69
2023-03-29T10:47:06.757Z,1013.70
2023-03-29T10:48:41.412Z,1013.67
2023-03-29T10:49:44.214Z,1013.67
2023-03-29T10:50:49.332Z,1013.69
2023-03-29T10:52:24.753Z,1013.68
2023-03-29T10:53:27.708Z,1013.67
2023-03-29T10:54:30.780Z,1013.60
2023-03-29T10:56:05.720Z,1013.56
2023-03-29T10:57:09.051Z,1013.57
2023-03-29T10:58:14.887Z,1013.58
2023-03-29T10:59:49.784Z,1013.56
2023-03-29T11:01:26.140Z,1013.58
2023-03-29T11:02:29.730Z,1013.62
2023-03-29T11:04:08.166Z,1013.57
2023-03-29T11:05:11.286Z,1013.57
2023-03-29T11:06:14.474Z,1013.57
2023-03-29T11:07:49.551Z,1013.56
2023-03-29T11:08:52.627Z,1013.50
2023-03-29T11:09:55.776Z,1013.48
2023-03-29T11:11:30.981Z,1013.53
2023-03-29T11:12:34.037Z,1013.54
2023-03-29T11:13:37.208Z,1013.55
2023-03-29T11:15:11.989Z,1013.53
2023-03-29T11:16:15.293Z,1013.56
2023-03-29T11:17:18.541Z,1013.56
2023-03-29T11:18:53.735Z,1013.62
2023-03-29T11:19:56.449Z,1013.60
2023-03-29T11:21:02.745Z,1013.62
2023-03-29T11:22:40.351Z,1013.62
2023-03-29T11:23:43.189Z,1013.63
2023-03-29T11:24:46.217Z,1013.63
2023-03-29T11:26:21.350Z,1013.58
2023-03-29T11:27:24.386Z,1013.56
2023-03-29T11:28:27.402Z,1013.50
2023-03-29T11:30:02.307Z,1013.45
2023-03-29T11:31:06.622Z,1013.46
2023-03-29T11:32:10.186Z,1013.46
2023-03-29T11:33:45.347Z,1013.47
2023-03-29T11:34:48.518Z,1013.48
2023-03-29T11:35:51.467Z,1013.41
2023-03-29T11:37:26.350Z,1013.43
2023-03-29T11:38:29.312Z,1013.41
2023-03-29T11:39:34.621Z,1013.41
2023-03-29T11:41:10.058Z,1013.35
2023-03-29T11:42:13.124Z,1013.30
2023-03-29T11:43:16.184Z,1013.28
2023-03-29T11:44:54.821Z,1013.26
2023-03-29T11:45:58.383Z,1013.28
2023-03-29T11:47:01.949Z,1013.25
2023-03-29T11:48:37.174Z,1013.25
2023-03-29T11:49:40.292Z,1013.24
2023-03-29T11:50:45.919Z,1013.25
2023-03-29T11:52:20.935Z,1013.19
2023-03-29T11:53:23.941Z,1013.17
2023-03-29T11:54:27.002Z,1013.16
2023-03-29T11:56:01.677Z,1013.14
2023-03-29T11:57:04.710Z,1013.13
2023-03-29T11:58:08.054Z,1013.13
2023-03-29T11:59:43.521Z,1013.15
2023-03-29T12:01:25.906Z,1013.15
2023-03-29T12:02:29.405Z,1013.16
2023-03-29T12:04:06.487Z,1013.15
2023-03-29T12:05:10.010Z,1013.13
2023-03-29T12:06:12.861Z,1013.14
2023-03-29T12:07:47.740Z,1013.18
2023-03-29T12:08:50.670Z,1013.17
2023-03-29T12:09:53.865Z,1013.15
2023-03-29T12:11:28.618Z,1013.20
2023-03-29T12:12:31.762Z,1013.16
2023-03-29T12:13:34.733Z,1013.23
2023-03-29T12:15:09.523Z,1013.20
2023-03-29T12:16:12.892Z,1013.15
2023-03-29T12:17:17.055Z,1013.17
2023-03-29T12:18:52.293Z,1013.15
2023-03-29T12:19:55.389Z,1013.20
2023-03-29T12:20:58.592Z,1013.20
2023-03-29T12:22:33.679Z,1013.21
2023-03-29T12:23:36.816Z,1013.18
2023-03-29T12:24:39.882Z,1013.21
2023-03-29T12:26:14.699Z,1013.29
2023-03-29T12:27:17.689Z,1013.35
2023-03-29T12:28:20.811Z,1013.34
2023-03-29T12:29:55.360Z,1013.35
2023-03-29T12:30:58.423Z,1013.32
2023-03-29T12:32:01.971Z,1013.31
2023-03-29T12:33:37.143Z,1013.29
2023-03-29T12:34:40.256Z,1013.26
2023-03-29T12:35:43.732Z,1013.25
2023-03-29T12:37:18.924Z,1013.21
2023-03-29T12:38:22.186Z,1013.18
2023-03-29T12:39:28.239Z,1013.16
2023-03-29T12:41:03.513Z,1013.23
2023-03-29T12:42:06.807Z,1013.23
2023-03-29T12:43:09.738Z,1013.27
2023-03-29T12:44:44.537Z,1013.28
2023-03-29T12:45:47.414Z,1013.31
2023-03-29T12:46:51.513Z,1013.32
2023-03-29T12:48:26.249Z,1013.34
2023-03-29T12:49:32.213Z,1013.25
2023-03-29T12:50:35.373Z,1013.26
2023-03-29T12:52:10.155Z,1013.24
2023-03-29T12:53:13.093Z,1013.22
2023-03-29T12:54:16.095Z,1013.22
2023-03-29T12:55:52.009Z,1013.23
2023-03-29T12:56:55.480Z,1013.23
2023-03-29T12:57:59.155Z,1013.17
2023-03-29T12:59:34.165Z,1013.10
2023-03-29T13:00:23.394Z,1013.11
2023-03-29T13:01:26.839Z,1013.08
2023-03-29T13:02:30.729Z,1013.08
2023-03-29T13:04:06.133Z,1013.05
2023-03-29T13:05:09.459Z,1013.01
2023-03-29T13:06:13.249Z,1012.99
2023-03-29T13:07:48.009Z,1012.96
2023-03-29T13:08:50.986Z,1012.98
2023-03-29T13:09:54.356Z,1012.95
2023-03-29T13:11:29.237Z,1012.98
2023-03-29T13:12:33.653Z,1012.97
2023-03-29T13:13:36.868Z,1012.94
2023-03-29T13:15:11.750Z,1012.92
2023-03-29T13:16:15.312Z,1012.89
2023-03-29T13:17:24.724Z,1012.89
2023-03-29T13:19:04.222Z,1012.86
2023-03-29T13:20:07.165Z,1012.88
2023-03-29T13:21:09.947Z,1012.83
2023-03-29T13:22:44.659Z,1012.85
2023-03-29T13:23:47.790Z,1012.82
2023-03-29T13:24:50.782Z,1012.84
2023-03-29T13:26:25.571Z,1012.78
2023-03-29T13:27:28.530Z,1012.77
2023-03-29T13:28:31.430Z,1012.72
2023-03-29T13:30:06.217Z,1012.77
2023-03-29T13:31:09.364Z,1012.71
2023-03-29T13:32:12.680Z,1012.76
2023-03-29T13:33:47.873Z,1012.75
2023-03-29T13:34:50.944Z,1012.69
2023-03-29T13:35:53.942Z,1012.71
2023-03-29T13:37:29.425Z,1012.69
2023-03-29T13:38:32.314Z,1012.70
2023-03-29T13:39:35.321Z,1012.68
2023-03-29T13:41:09.990Z,1012.57
2023-03-29T13:42:13.021Z,1012.56
2023-03-29T13:43:16.090Z,1012.51
2023-03-29T13:44:51.176Z,1012.50
2023-03-29T13:45:54.111Z,1012.54
2023-03-29T13:46:58.157Z,1012.50
2023-03-29T13:48:50.722Z,1012.51
2023-03-29T13:49:57.151Z,1012.48
2023-03-29T13:51:00.210Z,1012.50
2023-03-29T13:52:35.471Z,1012.51
2023-03-29T13:53:38.452Z,1012.53
2023-03-29T13:54:41.531Z,1012.52
2023-03-29T13:56:20.458Z,1012.49
2023-03-29T13:57:23.501Z,1012.45
2023-03-29T13:58:27.095Z,1012.49
2023-03-29T14:00:23.340Z,1012.50
2023-03-29T14:01:26.518Z,1012.49
2023-03-29T14:02:30.255Z,1012.48
2023-03-29T14:04:07.863Z,1012.48
2023-03-29T14:05:10.761Z,1012.49
2023-03-29T14:06:14.029Z,1012.47
2023-03-29T14:07:48.941Z,1012.48
2023-03-29T14:08:51.886Z,1012.48
2023-03-29T14:09:55.291Z,1012.48
2023-03-29T14:11:29.917Z,1012.45
2023-03-29T14:12:32.933Z,1012.42
2023-03-29T14:13:39.404Z,1012.38
2023-03-29T14:15:14.183Z,1012.31
2023-03-29T14:16:18.243Z,1012.27
2023-03-29T14:17:21.392Z,1012.24
2023-03-29T14:18:56.908Z,1012.17
2023-03-29T14:19:59.964Z,1012.22
2023-03-29T14:21:03.154Z,1012.25
2023-03-29T14:22:38.016Z,1012.30
2023-03-29T14:23:40.934Z,1012.27
2023-03-29T14:24:43.882Z,1012.20
2023-03-29T14:26:18.757Z,1012.21
2023-03-29T14:27:21.635Z,1012.24
2023-03-29T14:28:24.827Z,1012.25
2023-03-29T14:29:59.629Z,1012.27
2023-03-29T14:31:02.754Z,1012.25
2023-03-29T14:32:06.364Z,1012.23
2023-03-29T14:33:41.834Z,1012.19
2023-03-29T14:34:45.067Z,1012.18
2023-03-29T14:35:48.723Z,1012.18
2023-03-29T14:37:25.082Z,1012.16
2023-03-29T14:38:28.096Z,1012.12
2023-03-29T14:39:31.060Z,1012.08
2023-03-29T14:41:07.128Z,1012.09
2023-03-29T14:42:10.648Z,1012.12
2023-03-29T14:43:13.638Z,1012.13
2023-03-29T14:44:48.439Z,1012.09
2023-03-29T14:45:51.773Z,1012.04
2023-03-29T14:46:55.702Z,1012.00
2023-03-29T14:48:30.679Z,1011.96
2023-03-29T14:49:33.806Z,1012.00
2023-03-29T14:50:36.763Z,1011.96
2023-03-29T14:52:11.763Z,1011.95
2023-03-29T14:53:14.775Z,1011.89
2023-03-29T14:54:17.760Z,1011.89
2023-03-29T14:55:52.581Z,1011.91
2023-03-29T14:56:56.132Z,1011.88
2023-03-29T14:57:59.384Z,1011.90
2023-03-29T14:59:34.866Z,1011.89
2023-03-29T15:01:26.540Z,1011.83